Flight Track Log - Related Links

Times and Time Zones

All times are in EDT time to prevent confusion due to time zone crossing. See the SWA706 flight status page for this flight to view local times or setup timezone preferences in your user account.

Time Position Orientation Groundspeed Altitude Reporting Facility
EDT Latitude Longitude Course Direction KTS MPH feet Rate Location/Type
Sat 20:44:22 40.8211 -112.0650 289° West 218 251 8,000  Level Salt Lake Center
Sat 20:44:57 40.8278 -112.1200 279° West 251 289 10,000 3,188 Climbing Salt Lake Center
Sat 20:45:58 40.7900 -112.2175 243° Southwest 317 365 13,100 3,443 Climbing Salt Lake Center
Sat 20:46:59 40.6972 -112.2444 192° South 343 395 17,000 3,738 Climbing Salt Lake Center
Sat 20:48:00 40.5989 -112.2772 194° South 363 418 20,700 3,344 Climbing Salt Lake Center
Sat 20:49:01 40.4956 -112.3092 193° South 382 440 23,800 2,902 Climbing Salt Lake Center
Sat 20:50:02 40.3869 -112.3431 193° South 400 460 26,600 2,656 Climbing Salt Lake Center
Sat 20:51:03 40.2719 -112.3614 187° South 416 479 29,200 2,115 Climbing Salt Lake Center
Sat 20:52:04 40.1494 -112.3622 180° South 441 507 30,900 1,918 Climbing Salt Lake Center
Sat 20:53:05 40.0219 -112.3636 180° South 457 526 33,100 2,164 Climbing Salt Lake Center
Sat 20:54:06 39.8956 -112.3625 180° South 456 525 35,300 1,820 Climbing Salt Lake Center
Sat 20:55:07 39.7422 -112.3661 181° South 458 527 36,800 836 Climbing Salt Lake Center
Sat 20:56:08 39.6078 -112.3667 180° South 477 549 37,000 98 Climbing Salt Lake Center
Sat 20:57:09 39.4792 -112.3686 181° South 464 534 37,000  Level Salt Lake Center
Sat 20:58:10 39.3461 -112.3708 181° South 474 545 37,000  Level Salt Lake Center
Sat 20:59:11 39.2006 -112.3706 180° South 486 559 37,000  Level Salt Lake Center
Sat 21:00:12 39.0650 -112.3731 181° South 487 560 37,000  Level Salt Lake Center
Sat 21:01:13 38.9297 -112.3750 181° South 486 559 37,000  Level Salt Lake Center
Sat 21:02:14 38.7950 -112.3769 181° South 484 557 37,000  Level Salt Lake Center
Sat 21:03:15 38.6597 -112.3783 180° South 485 558 37,000  Level Salt Lake Center
Sat 21:04:16 38.5244 -112.3803 181° South 486 559 37,000  Level Salt Lake Center
Sat 21:05:17 38.3872 -112.3814 180° South 492 566 37,000  Level Salt Lake Center
Sat 21:06:18 38.2497 -112.3825 180° South 493 567 37,000  Level Salt Lake Center
Sat 21:07:19 38.1108 -112.3839 180° South 497 572 37,000  Level Salt Lake Center
Sat 21:08:19 37.9767 -112.3833 180° South 485 558 37,000  Level Salt Lake Center
Sat 21:09:20 37.8450 -112.3844 180° South 473 544 37,000  Level Salt Lake Center
Sat 21:10:21 37.7136 -112.3850 180° South 470 541 37,000  Level Salt Lake Center
Sat 21:11:22 37.5817 -112.3861 180° South 469 540 37,000  Level Salt Lake Center
Sat 21:12:23 37.4506 -112.3867 180° South 468 539 37,000  Level Salt Lake Center
Sat 21:13:24 37.3206 -112.3872 180° South 466 536 37,000  Level Salt Lake Center
Sat 21:14:25 37.1889 -112.3892 181° South 467 537 37,000  Level Salt Lake Center
Sat 21:15:26 37.0564 -112.3897 180° South 470 541 37,000 -308 Level Salt Lake Center
Sat 21:15:43 37.0014 -112.3939 183° South 471 542 36,600 -1,077 Descending Los Angeles Center
Sat 21:16:44 36.8694 -112.3956 181° South 472 543 35,600 -934 Descending Los Angeles Center
Sat 21:17:45 36.7372 -112.3956 180° South 473 544 34,700 -927 Descending Los Angeles Center
Sat 21:18:47 36.6031 -112.3969 180° South 476 548 33,700 -829 Descending Los Angeles Center
Sat 21:19:48 36.4708 -112.3981 180° South 477 549 33,000 -344 Descending Los Angeles Center
Sat 21:20:49 36.3392 -112.3992 180° South 475 547 33,000  Level Los Angeles Center
Sat 21:21:51 36.2061 -112.4008 181° South 476 548 33,000  Level Los Angeles Center
Sat 21:22:52 36.0478 -112.4000 180° South 475 547 33,000  Level Los Angeles Center
Sat 21:23:53 35.9194 -112.4053 182° South 472 543 33,000 -390 Level Los Angeles Center
Sat 21:24:55 35.7875 -112.4144 183° South 472 543 32,200 -1,171 Descending Los Angeles Center
Sat 21:25:56 35.6564 -112.4197 182° South 472 543 30,600 -1,574 Descending Los Angeles Center
Sat 21:26:57 35.5258 -112.4281 183° South 470 541 29,000 -787 Descending Los Angeles Center
Sat 21:27:58 35.3961 -112.4375 183° South 468 539 29,000  Level Los Angeles Center
Sat 21:28:26 35.3442 -112.4261 170° South 473 544 29,000  Level Albuquerque Center
Sat 21:29:28 35.2117 -112.3961 170° South 482 555 29,000  Level Albuquerque Center
Sat 21:30:29 35.0814 -112.3650 169° South 477 549 29,000  Level Albuquerque Center
Sat 21:31:30 34.9247 -112.3306 170° South 477 549 29,000 -341 Level Albuquerque Center
Sat 21:32:32 34.7953 -112.3003 169° South 475 547 28,300 -1,415 Descending Albuquerque Center
Sat 21:33:33 34.6733 -112.2719 169° South 466 536 26,100 -2,262 Descending Albuquerque Center
Sat 21:34:34 34.5517 -112.2444 169° South 452 520 23,700 -2,244 Descending Albuquerque Center
Sat 21:35:36 34.4344 -112.2169 169° South 438 504 21,500 -2,146 Descending Albuquerque Center
Sat 21:36:37 34.3208 -112.1903 169° South 424 488 19,300 -2,213 Descending Albuquerque Center
Sat 21:37:38 34.2097 -112.1639 169° South 413 475 17,000 -1,805 Descending Albuquerque Center
Sat 21:38:40 34.0878 -112.1364 169° South 375 432 15,600 -1,415 Descending Albuquerque Center
Sat 21:39:41 33.9969 -112.1139 168° South 340 391 14,100 -1,475 Descending Albuquerque Center
Sat 21:40:42 33.9089 -112.0903 167° South 329 379 12,600 -1,475 Descending Albuquerque Center
Sat 21:41:43 33.8244 -112.0700 169° South 316 364 11,100 -1,268 Descending Albuquerque Center
Sat 21:42:45 33.7431 -112.0497 168° South 303 349 10,000 -537 Descending Albuquerque Center
Sat 21:43:46 33.6625 -112.0364 172° South 293 337 10,000 -49 Level Albuquerque Center
Sat 21:44:47 33.5822 -112.0225 172° South 293 337 9,900 -934 Descending Albuquerque Center
Sat 21:45:48 33.4869 -112.0069 172° South 287 330 8,100 -1,377 Descending Albuquerque Center
Sat 21:46:49 33.4197 -111.9731 157° South 266 306 7,100 -537 Descending Albuquerque Center
Sat 21:47:51 33.3644 -111.9233 143° Southeast 256 295 7,000 -537 Descending Albuquerque Center
Sat 21:48:52 33.3508 -111.8444 102° East 246 283 6,000 -787 Descending Albuquerque Center
Sat 21:49:53 33.3386 -111.7767 102° East 215 247 5,400 -492 Descending Albuquerque Center
Sat 21:50:54 33.3442 -111.7133 84° East 203 234 5,000 -393 Descending Albuquerque Center
Sat 21:51:55 33.3872 -111.7428 330° Northwest 179 206 4,600 -344 Descending Albuquerque Center
Sat 21:52:56 33.4117 -111.7828 306° West 172 198 4,300 -344 Descending Albuquerque Center
Sat 21:53:57 33.4283 -111.8331 292° West 173 199 3,900 -585 Descending Albuquerque Center
Sat 21:54:59 33.4289 -111.8864 271° West 162 186 3,100 -927 Descending Albuquerque Center
Sat 21:56:00 33.4300 -111.9453 271° West 145 167 2,000 -836 Descending Albuquerque Center
Sat 21:57:01 33.4286 -111.9881 268° West 130 150 1,400 -590 Descending Albuquerque Center

Login

Don't have an account? Register now (free) for customized features, flight alerts, and more!